sensor_id;sensor_type;location;lat;lon;timestamp;P1;durP1;ratioP1;P2;durP2;ratioP2
50954;SDS011;36966;48.064;-0.792;2022-12-29T00:00:22;7.55;;;1.23;;
50954;SDS011;36966;48.064;-0.792;2022-12-29T00:02:41;10.48;;;1.30;;
50954;SDS011;36966;48.064;-0.792;2022-12-29T00:05:00;18.02;;;2.45;;
50954;SDS011;36966;48.064;-0.792;2022-12-29T00:07:20;9.10;;;1.30;;
50954;SDS011;36966;48.064;-0.792;2022-12-29T00:09:39;11.98;;;2.28;;
50954;SDS011;36966;48.064;-0.792;2022-12-29T00:11:59;7.28;;;1.35;;
50954;SDS011;36966;48.064;-0.792;2022-12-29T00:14:19;7.03;;;1.08;;
50954;SDS011;36966;48.064;-0.792;2022-12-29T00:16:57;9.98;;;1.77;;
50954;SDS011;36966;48.064;-0.792;2022-12-29T00:19:16;9.85;;;1.88;;
50954;SDS011;36966;48.064;-0.792;2022-12-29T00:21:55;7.05;;;1.23;;
50954;SDS011;36966;48.064;-0.792;2022-12-29T00:24:33;4.97;;;1.33;;
50954;SDS011;36966;48.064;-0.792;2022-12-29T00:29:39;9.65;;;0.90;;
50954;SDS011;36966;48.064;-0.792;2022-12-29T00:32:17;6.55;;;0.82;;
50954;SDS011;36966;48.064;-0.792;2022-12-29T00:34:55;7.20;;;0.73;;
50954;SDS011;36966;48.064;-0.792;2022-12-29T00:37:27;7.57;;;0.70;;
50954;SDS011;36966;48.064;-0.792;2022-12-29T00:40:06;7.47;;;0.90;;
50954;SDS011;36966;48.064;-0.792;2022-12-29T00:42:45;6.50;;;1.38;;
50954;SDS011;36966;48.064;-0.792;2022-12-29T00:45:23;6.00;;;1.00;;
50954;SDS011;36966;48.064;-0.792;2022-12-29T00:47:42;12.45;;;1.27;;
50954;SDS011;36966;48.064;-0.792;2022-12-29T00:50:01;11.85;;;0.93;;
50954;SDS011;36966;48.064;-0.792;2022-12-29T00:52:21;6.38;;;0.90;;
50954;SDS011;36966;48.064;-0.792;2022-12-29T00:54:40;7.57;;;0.90;;
50954;SDS011;36966;48.064;-0.792;2022-12-29T00:57:04;7.40;;;0.50;;
50954;SDS011;36966;48.064;-0.792;2022-12-29T00:59:26;7.07;;;0.75;;
50954;SDS011;36966;48.064;-0.792;2022-12-29T01:01:45;10.73;;;1.60;;
50954;SDS011;36966;48.064;-0.792;2022-12-29T01:04:06;5.03;;;0.70;;
50954;SDS011;36966;48.064;-0.792;2022-12-29T01:06:26;8.80;;;1.02;;
50954;SDS011;36966;48.064;-0.792;2022-12-29T01:08:45;4.40;;;0.68;;
50954;SDS011;36966;48.064;-0.792;2022-12-29T01:11:09;4.90;;;0.50;;
50954;SDS011;36966;48.064;-0.792;2022-12-29T01:13:30;7.57;;;1.00;;
50954;SDS011;36966;48.064;-0.792;2022-12-29T01:15:50;6.90;;;0.75;;
50954;SDS011;36966;48.064;-0.792;2022-12-29T01:18:10;8.18;;;0.85;;
50954;SDS011;36966;48.064;-0.792;2022-12-29T01:20:30;6.15;;;0.90;;
50954;SDS011;36966;48.064;-0.792;2022-12-29T01:22:49;10.30;;;1.00;;
50954;SDS011;36966;48.064;-0.792;2022-12-29T01:25:08;9.18;;;0.68;;
50954;SDS011;36966;48.064;-0.792;2022-12-29T01:27:27;9.70;;;0.95;;
50954;SDS011;36966;48.064;-0.792;2022-12-29T01:29:46;5.45;;;0.73;;
50954;SDS011;36966;48.064;-0.792;2022-12-29T01:32:05;9.10;;;0.90;;
50954;SDS011;36966;48.064;-0.792;2022-12-29T01:34:25;5.25;;;0.65;;
50954;SDS011;36966;48.064;-0.792;2022-12-29T01:36:44;11.93;;;1.10;;
50954;SDS011;36966;48.064;-0.792;2022-12-29T01:39:03;6.95;;;0.35;;
50954;SDS011;36966;48.064;-0.792;2022-12-29T01:41:22;7.22;;;0.82;;
50954;SDS011;36966;48.064;-0.792;2022-12-29T01:43:46;5.90;;;0.73;;
50954;SDS011;36966;48.064;-0.792;2022-12-29T01:48:33;10.30;;;0.95;;
50954;SDS011;36966;48.064;-0.792;2022-12-29T01:50:53;8.32;;;1.15;;
50954;SDS011;36966;48.064;-0.792;2022-12-29T01:53:26;10.63;;;0.90;;
50954;SDS011;36966;48.064;-0.792;2022-12-29T01:55:51;11.68;;;1.25;;
50954;SDS011;36966;48.064;-0.792;2022-12-29T01:58:12;16.40;;;1.48;;
50954;SDS011;36966;48.064;-0.792;2022-12-29T02:00:33;9.07;;;1.23;;
50954;SDS011;36966;48.064;-0.792;2022-12-29T02:02:53;11.35;;;1.20;;
50954;SDS011;36966;48.064;-0.792;2022-12-29T02:05:21;8.70;;;0.70;;
50954;SDS011;36966;48.064;-0.792;2022-12-29T02:07:42;8.20;;;0.70;;
50954;SDS011;36966;48.064;-0.792;2022-12-29T02:10:03;12.95;;;2.60;;
50954;SDS011;36966;48.064;-0.792;2022-12-29T02:12:23;10.57;;;1.05;;
50954;SDS011;36966;48.064;-0.792;2022-12-29T02:14:43;15.52;;;1.95;;
50954;SDS011;36966;48.064;-0.792;2022-12-29T02:37:26;8.70;;;1.27;;
50954;SDS011;36966;48.064;-0.792;2022-12-29T02:40:17;8.18;;;0.85;;
50954;SDS011;36966;48.064;-0.792;2022-12-29T02:43:06;8.52;;;1.58;;
50954;SDS011;36966;48.064;-0.792;2022-12-29T02:45:39;9.32;;;0.77;;
50954;SDS011;36966;48.064;-0.792;2022-12-29T02:48:27;12.05;;;1.05;;
50954;SDS011;36966;48.064;-0.792;2022-12-29T02:51:05;7.65;;;1.58;;
50954;SDS011;36966;48.064;-0.792;2022-12-29T02:53:30;9.95;;;2.25;;
50954;SDS011;36966;48.064;-0.792;2022-12-29T02:56:10;12.82;;;2.15;;
50954;SDS011;36966;48.064;-0.792;2022-12-29T02:58:29;13.32;;;1.10;;
50954;SDS011;36966;48.064;-0.792;2022-12-29T03:00:53;10.55;;;1.40;;
50954;SDS011;36966;48.064;-0.792;2022-12-29T03:11:17;7.97;;;1.33;;
50954;SDS011;36966;48.064;-0.792;2022-12-29T03:14:43;11.30;;;1.55;;
50954;SDS011;36966;48.064;-0.792;2022-12-29T03:16:59;5.50;;;1.10;;
50954;SDS011;36966;48.064;-0.792;2022-12-29T03:19:42;8.02;;;1.33;;
50954;SDS011;36966;48.064;-0.792;2022-12-29T03:22:07;15.43;;;0.80;;
50954;SDS011;36966;48.064;-0.792;2022-12-29T03:25:08;9.50;;;1.00;;
50954;SDS011;36966;48.064;-0.792;2022-12-29T03:27:50;10.32;;;0.93;;
50954;SDS011;36966;48.064;-0.792;2022-12-29T03:30:14;13.07;;;0.93;;
50954;SDS011;36966;48.064;-0.792;2022-12-29T03:32:42;8.80;;;0.63;;
50954;SDS011;36966;48.064;-0.792;2022-12-29T03:35:04;4.18;;;0.93;;
50954;SDS011;36966;48.064;-0.792;2022-12-29T03:37:26;6.10;;;0.90;;
50954;SDS011;36966;48.064;-0.792;2022-12-29T03:39:54;7.78;;;0.95;;
50954;SDS011;36966;48.064;-0.792;2022-12-29T03:42:17;13.25;;;1.35;;
50954;SDS011;36966;48.064;-0.792;2022-12-29T03:47:00;11.15;;;1.13;;
50954;SDS011;36966;48.064;-0.792;2022-12-29T03:49:19;8.30;;;0.98;;
50954;SDS011;36966;48.064;-0.792;2022-12-29T03:51:38;8.48;;;1.17;;
50954;SDS011;36966;48.064;-0.792;2022-12-29T03:53:57;7.40;;;0.95;;
50954;SDS011;36966;48.064;-0.792;2022-12-29T03:56:16;4.85;;;0.50;;
50954;SDS011;36966;48.064;-0.792;2022-12-29T03:58:35;7.25;;;0.90;;
50954;SDS011;36966;48.064;-0.792;2022-12-29T04:00:54;7.88;;;0.68;;
50954;SDS011;36966;48.064;-0.792;2022-12-29T04:03:14;6.65;;;1.20;;
50954;SDS011;36966;48.064;-0.792;2022-12-29T04:05:33;13.15;;;0.93;;
50954;SDS011;36966;48.064;-0.792;2022-12-29T04:07:52;10.15;;;1.73;;
50954;SDS011;36966;48.064;-0.792;2022-12-29T04:10:11;10.30;;;1.23;;
50954;SDS011;36966;48.064;-0.792;2022-12-29T04:12:31;9.07;;;1.88;;
50954;SDS011;36966;48.064;-0.792;2022-12-29T04:14:50;14.63;;;1.40;;
50954;SDS011;36966;48.064;-0.792;2022-12-29T04:17:09;11.45;;;1.05;;
50954;SDS011;36966;48.064;-0.792;2022-12-29T04:19:28;10.05;;;1.25;;
50954;SDS011;36966;48.064;-0.792;2022-12-29T04:21:47;9.20;;;1.10;;
50954;SDS011;36966;48.064;-0.792;2022-12-29T04:24:06;8.95;;;1.05;;
50954;SDS011;36966;48.064;-0.792;2022-12-29T04:26:26;14.50;;;1.17;;
50954;SDS011;36966;48.064;-0.792;2022-12-29T04:28:45;6.40;;;1.13;;
50954;SDS011;36966;48.064;-0.792;2022-12-29T04:31:05;13.02;;;1.40;;
50954;SDS011;36966;48.064;-0.792;2022-12-29T04:33:24;15.32;;;1.13;;
50954;SDS011;36966;48.064;-0.792;2022-12-29T04:35:43;8.55;;;2.20;;
50954;SDS011;36966;48.064;-0.792;2022-12-29T04:38:03;10.10;;;1.83;;
50954;SDS011;36966;48.064;-0.792;2022-12-29T04:40:22;15.57;;;1.90;;
50954;SDS011;36966;48.064;-0.792;2022-12-29T04:42:42;12.43;;;1.50;;
50954;SDS011;36966;48.064;-0.792;2022-12-29T04:45:02;6.13;;;0.98;;
50954;SDS011;36966;48.064;-0.792;2022-12-29T04:47:21;6.13;;;0.88;;
50954;SDS011;36966;48.064;-0.792;2022-12-29T04:49:40;10.65;;;1.50;;
50954;SDS011;36966;48.064;-0.792;2022-12-29T04:51:59;11.98;;;1.67;;
50954;SDS011;36966;48.064;-0.792;2022-12-29T04:54:18;11.07;;;1.52;;
50954;SDS011;36966;48.064;-0.792;2022-12-29T04:56:38;9.02;;;1.02;;
50954;SDS011;36966;48.064;-0.792;2022-12-29T04:58:57;12.60;;;1.20;;
50954;SDS011;36966;48.064;-0.792;2022-12-29T05:01:16;12.82;;;1.15;;
50954;SDS011;36966;48.064;-0.792;2022-12-29T05:03:35;12.63;;;1.38;;
50954;SDS011;36966;48.064;-0.792;2022-12-29T05:05:55;16.02;;;1.63;;
50954;SDS011;36966;48.064;-0.792;2022-12-29T05:08:15;11.07;;;1.50;;
50954;SDS011;36966;48.064;-0.792;2022-12-29T05:10:34;15.88;;;1.50;;
50954;SDS011;36966;48.064;-0.792;2022-12-29T05:12:53;11.95;;;1.13;;
50954;SDS011;36966;48.064;-0.792;2022-12-29T05:15:12;6.35;;;0.88;;
50954;SDS011;36966;48.064;-0.792;2022-12-29T05:17:32;13.02;;;1.42;;
50954;SDS011;36966;48.064;-0.792;2022-12-29T05:19:52;8.05;;;1.40;;
50954;SDS011;36966;48.064;-0.792;2022-12-29T05:22:11;13.52;;;1.67;;
50954;SDS011;36966;48.064;-0.792;2022-12-29T05:24:30;5.72;;;0.90;;
50954;SDS011;36966;48.064;-0.792;2022-12-29T05:26:49;8.77;;;1.33;;
50954;SDS011;36966;48.064;-0.792;2022-12-29T05:29:08;10.75;;;1.25;;
50954;SDS011;36966;48.064;-0.792;2022-12-29T05:31:28;4.32;;;1.27;;
50954;SDS011;36966;48.064;-0.792;2022-12-29T05:33:47;10.88;;;0.80;;
50954;SDS011;36966;48.064;-0.792;2022-12-29T05:36:07;8.73;;;0.90;;
50954;SDS011;36966;48.064;-0.792;2022-12-29T05:38:27;13.73;;;1.20;;
50954;SDS011;36966;48.064;-0.792;2022-12-29T05:40:46;8.60;;;0.85;;
50954;SDS011;36966;48.064;-0.792;2022-12-29T05:43:05;9.82;;;1.10;;
50954;SDS011;36966;48.064;-0.792;2022-12-29T05:45:24;9.38;;;1.02;;
50954;SDS011;36966;48.064;-0.792;2022-12-29T05:47:44;9.68;;;1.15;;
50954;SDS011;36966;48.064;-0.792;2022-12-29T05:50:03;7.43;;;1.27;;
50954;SDS011;36966;48.064;-0.792;2022-12-29T05:52:22;11.43;;;1.17;;
50954;SDS011;36966;48.064;-0.792;2022-12-29T05:54:42;6.22;;;1.13;;
50954;SDS011;36966;48.064;-0.792;2022-12-29T05:57:01;12.90;;;1.50;;
50954;SDS011;36966;48.064;-0.792;2022-12-29T05:59:20;11.57;;;1.67;;
50954;SDS011;36966;48.064;-0.792;2022-12-29T06:01:39;5.85;;;1.10;;
50954;SDS011;36966;48.064;-0.792;2022-12-29T06:03:58;9.07;;;1.35;;
50954;SDS011;36966;48.064;-0.792;2022-12-29T06:06:17;6.72;;;0.80;;
50954;SDS011;36966;48.064;-0.792;2022-12-29T06:08:36;10.85;;;1.08;;
50954;SDS011;36966;48.064;-0.792;2022-12-29T06:10:55;12.45;;;1.45;;
50954;SDS011;36966;48.064;-0.792;2022-12-29T06:13:15;8.80;;;1.25;;
50954;SDS011;36966;48.064;-0.792;2022-12-29T06:15:34;9.13;;;1.58;;
50954;SDS011;36966;48.064;-0.792;2022-12-29T06:17:54;8.30;;;1.00;;
50954;SDS011;36966;48.064;-0.792;2022-12-29T06:20:13;6.28;;;1.05;;
50954;SDS011;36966;48.064;-0.792;2022-12-29T06:22:32;9.50;;;1.00;;
50954;SDS011;36966;48.064;-0.792;2022-12-29T06:24:52;7.15;;;1.27;;
50954;SDS011;36966;48.064;-0.792;2022-12-29T06:27:11;10.25;;;1.45;;
50954;SDS011;36966;48.064;-0.792;2022-12-29T06:29:32;15.98;;;0.90;;
50954;SDS011;36966;48.064;-0.792;2022-12-29T06:31:52;6.18;;;0.82;;
50954;SDS011;36966;48.064;-0.792;2022-12-29T06:34:15;12.45;;;1.20;;
50954;SDS011;36966;48.064;-0.792;2022-12-29T06:36:34;12.20;;;1.30;;
50954;SDS011;36966;48.064;-0.792;2022-12-29T06:38:53;10.40;;;1.42;;
50954;SDS011;36966;48.064;-0.792;2022-12-29T06:41:13;18.98;;;1.67;;
50954;SDS011;36966;48.064;-0.792;2022-12-29T06:43:32;8.25;;;1.52;;
50954;SDS011;36966;48.064;-0.792;2022-12-29T06:45:52;12.18;;;1.45;;
50954;SDS011;36966;48.064;-0.792;2022-12-29T06:48:11;10.00;;;1.00;;
50954;SDS011;36966;48.064;-0.792;2022-12-29T06:50:30;11.90;;;1.27;;
50954;SDS011;36966;48.064;-0.792;2022-12-29T06:52:49;8.85;;;0.90;;
50954;SDS011;36966;48.064;-0.792;2022-12-29T06:55:09;6.97;;;1.15;;
50954;SDS011;36966;48.064;-0.792;2022-12-29T06:57:28;6.18;;;1.65;;
50954;SDS011;36966;48.064;-0.792;2022-12-29T06:59:47;14.68;;;1.15;;
50954;SDS011;36966;48.064;-0.792;2022-12-29T07:02:06;21.20;;;1.50;;
50954;SDS011;36966;48.064;-0.792;2022-12-29T07:04:27;10.30;;;1.58;;
50954;SDS011;36966;48.064;-0.792;2022-12-29T07:06:47;12.52;;;1.13;;
50954;SDS011;36966;48.064;-0.792;2022-12-29T07:09:06;10.98;;;1.02;;
50954;SDS011;36966;48.064;-0.792;2022-12-29T07:11:26;10.20;;;1.25;;
50954;SDS011;36966;48.064;-0.792;2022-12-29T07:13:45;10.05;;;1.42;;
50954;SDS011;36966;48.064;-0.792;2022-12-29T07:16:08;13.75;;;1.20;;
50954;SDS011;36966;48.064;-0.792;2022-12-29T07:18:28;7.63;;;1.00;;
50954;SDS011;36966;48.064;-0.792;2022-12-29T07:20:47;9.73;;;1.58;;
50954;SDS011;36966;48.064;-0.792;2022-12-29T07:23:06;10.45;;;1.20;;
50954;SDS011;36966;48.064;-0.792;2022-12-29T07:25:26;9.85;;;0.95;;
50954;SDS011;36966;48.064;-0.792;2022-12-29T07:27:45;6.75;;;1.13;;
50954;SDS011;36966;48.064;-0.792;2022-12-29T07:30:04;9.90;;;0.90;;
50954;SDS011;36966;48.064;-0.792;2022-12-29T07:32:24;7.72;;;1.13;;
50954;SDS011;36966;48.064;-0.792;2022-12-29T07:34:43;11.15;;;1.25;;
50954;SDS011;36966;48.064;-0.792;2022-12-29T07:37:06;10.32;;;1.05;;
50954;SDS011;36966;48.064;-0.792;2022-12-29T07:39:25;10.68;;;1.80;;
50954;SDS011;36966;48.064;-0.792;2022-12-29T07:41:44;11.63;;;1.20;;
50954;SDS011;36966;48.064;-0.792;2022-12-29T07:44:04;12.43;;;1.15;;
50954;SDS011;36966;48.064;-0.792;2022-12-29T07:46:23;18.27;;;2.13;;
50954;SDS011;36966;48.064;-0.792;2022-12-29T07:48:42;12.27;;;1.35;;
50954;SDS011;36966;48.064;-0.792;2022-12-29T07:51:01;10.10;;;2.25;;
50954;SDS011;36966;48.064;-0.792;2022-12-29T07:53:20;10.10;;;1.85;;
50954;SDS011;36966;48.064;-0.792;2022-12-29T07:55:40;15.77;;;1.58;;
50954;SDS011;36966;48.064;-0.792;2022-12-29T07:57:59;10.63;;;1.77;;
50954;SDS011;36966;48.064;-0.792;2022-12-29T08:00:18;13.05;;;1.38;;
50954;SDS011;36966;48.064;-0.792;2022-12-29T08:02:38;16.45;;;1.42;;
50954;SDS011;36966;48.064;-0.792;2022-12-29T08:04:57;9.52;;;2.03;;
50954;SDS011;36966;48.064;-0.792;2022-12-29T08:07:16;10.57;;;1.30;;
50954;SDS011;36966;48.064;-0.792;2022-12-29T08:09:35;14.15;;;1.30;;
50954;SDS011;36966;48.064;-0.792;2022-12-29T08:11:55;8.20;;;1.50;;
50954;SDS011;36966;48.064;-0.792;2022-12-29T08:14:14;15.82;;;1.20;;
50954;SDS011;36966;48.064;-0.792;2022-12-29T08:16:34;15.57;;;1.75;;
50954;SDS011;36966;48.064;-0.792;2022-12-29T08:18:53;12.20;;;1.75;;
50954;SDS011;36966;48.064;-0.792;2022-12-29T08:21:12;14.32;;;1.15;;
50954;SDS011;36966;48.064;-0.792;2022-12-29T08:23:31;13.55;;;1.63;;
50954;SDS011;36966;48.064;-0.792;2022-12-29T08:26:01;6.65;;;1.35;;
50954;SDS011;36966;48.064;-0.792;2022-12-29T08:28:22;22.30;;;1.85;;
50954;SDS011;36966;48.064;-0.792;2022-12-29T08:30:42;10.48;;;2.35;;
50954;SDS011;36966;48.064;-0.792;2022-12-29T08:33:01;12.77;;;2.70;;
50954;SDS011;36966;48.064;-0.792;2022-12-29T08:35:20;12.35;;;2.10;;
50954;SDS011;36966;48.064;-0.792;2022-12-29T08:37:39;10.65;;;0.85;;
50954;SDS011;36966;48.064;-0.792;2022-12-29T08:39:58;12.73;;;2.25;;
50954;SDS011;36966;48.064;-0.792;2022-12-29T08:42:18;13.55;;;2.13;;
50954;SDS011;36966;48.064;-0.792;2022-12-29T08:44:37;10.63;;;1.75;;
50954;SDS011;36966;48.064;-0.792;2022-12-29T08:46:56;13.43;;;1.73;;
50954;SDS011;36966;48.064;-0.792;2022-12-29T08:49:15;18.33;;;1.65;;
50954;SDS011;36966;48.064;-0.792;2022-12-29T08:51:35;18.23;;;1.80;;
50954;SDS011;36966;48.064;-0.792;2022-12-29T08:53:54;13.05;;;1.42;;
50954;SDS011;36966;48.064;-0.792;2022-12-29T08:56:13;17.13;;;1.90;;
50954;SDS011;36966;48.064;-0.792;2022-12-29T08:58:32;13.52;;;1.73;;
50954;SDS011;36966;48.064;-0.792;2022-12-29T09:00:52;11.88;;;1.40;;
50954;SDS011;36966;48.064;-0.792;2022-12-29T09:03:15;16.52;;;1.50;;
50954;SDS011;36966;48.064;-0.792;2022-12-29T09:05:34;10.82;;;1.25;;
50954;SDS011;36966;48.064;-0.792;2022-12-29T09:07:53;14.73;;;1.67;;
50954;SDS011;36966;48.064;-0.792;2022-12-29T09:10:12;10.23;;;1.45;;
50954;SDS011;36966;48.064;-0.792;2022-12-29T09:12:32;15.00;;;1.45;;
50954;SDS011;36966;48.064;-0.792;2022-12-29T09:14:51;9.35;;;1.60;;
50954;SDS011;36966;48.064;-0.792;2022-12-29T09:17:10;14.20;;;1.42;;
50954;SDS011;36966;48.064;-0.792;2022-12-29T09:19:48;7.43;;;1.30;;
50954;SDS011;36966;48.064;-0.792;2022-12-29T09:22:07;11.20;;;2.15;;
50954;SDS011;36966;48.064;-0.792;2022-12-29T09:24:26;13.57;;;1.40;;
50954;SDS011;36966;48.064;-0.792;2022-12-29T09:26:45;18.27;;;1.92;;
50954;SDS011;36966;48.064;-0.792;2022-12-29T09:29:05;15.20;;;2.25;;
50954;SDS011;36966;48.064;-0.792;2022-12-29T09:31:24;18.55;;;1.58;;
50954;SDS011;36966;48.064;-0.792;2022-12-29T09:33:43;15.75;;;1.92;;
50954;SDS011;36966;48.064;-0.792;2022-12-29T09:36:02;9.75;;;1.30;;
50954;SDS011;36966;48.064;-0.792;2022-12-29T09:38:23;16.10;;;1.70;;
50954;SDS011;36966;48.064;-0.792;2022-12-29T09:40:44;12.05;;;1.95;;
50954;SDS011;36966;48.064;-0.792;2022-12-29T09:45:47;19.80;;;2.10;;
50954;SDS011;36966;48.064;-0.792;2022-12-29T09:48:34;13.48;;;3.10;;
50954;SDS011;36966;48.064;-0.792;2022-12-29T09:51:00;12.77;;;1.08;;
50954;SDS011;36966;48.064;-0.792;2022-12-29T09:53:36;17.08;;;1.73;;
50954;SDS011;36966;48.064;-0.792;2022-12-29T09:56:00;10.77;;;1.33;;
50954;SDS011;36966;48.064;-0.792;2022-12-29T10:01:04;10.70;;;2.00;;
50954;SDS011;36966;48.064;-0.792;2022-12-29T10:03:45;14.82;;;2.13;;
50954;SDS011;36966;48.064;-0.792;2022-12-29T10:18:57;11.50;;;2.40;;
50954;SDS011;36966;48.064;-0.792;2022-12-29T10:21:26;8.45;;;1.45;;
50954;SDS011;36966;48.064;-0.792;2022-12-29T10:24:07;8.27;;;1.42;;
50954;SDS011;36966;48.064;-0.792;2022-12-29T10:26:36;10.32;;;1.73;;
50954;SDS011;36966;48.064;-0.792;2022-12-29T10:29:02;10.02;;;1.63;;
50954;SDS011;36966;48.064;-0.792;2022-12-29T10:31:24;9.18;;;1.50;;
50954;SDS011;36966;48.064;-0.792;2022-12-29T10:33:58;8.95;;;0.93;;
50954;SDS011;36966;48.064;-0.792;2022-12-29T10:41:39;9.32;;;1.25;;
50954;SDS011;36966;48.064;-0.792;2022-12-29T10:44:06;10.57;;;1.17;;
50954;SDS011;36966;48.064;-0.792;2022-12-29T10:46:33;5.55;;;1.10;;
50954;SDS011;36966;48.064;-0.792;2022-12-29T10:48:55;11.10;;;1.23;;
50954;SDS011;36966;48.064;-0.792;2022-12-29T10:51:25;8.35;;;1.00;;
50954;SDS011;36966;48.064;-0.792;2022-12-29T10:54:11;8.23;;;1.08;;
50954;SDS011;36966;48.064;-0.792;2022-12-29T10:56:43;7.45;;;1.38;;
50954;SDS011;36966;48.064;-0.792;2022-12-29T10:59:21;8.93;;;1.33;;
50954;SDS011;36966;48.064;-0.792;2022-12-29T11:01:50;5.57;;;1.40;;
50954;SDS011;36966;48.064;-0.792;2022-12-29T11:06:55;10.75;;;2.53;;
50954;SDS011;36966;48.064;-0.792;2022-12-29T11:09:19;9.35;;;1.80;;
50954;SDS011;36966;48.064;-0.792;2022-12-29T11:11:45;11.02;;;2.80;;
50954;SDS011;36966;48.064;-0.792;2022-12-29T11:16:33;13.65;;;2.50;;
50954;SDS011;36966;48.064;-0.792;2022-12-29T11:18:53;7.20;;;2.15;;
50954;SDS011;36966;48.064;-0.792;2022-12-29T11:23:48;11.77;;;2.83;;
50954;SDS011;36966;48.064;-0.792;2022-12-29T11:26:22;17.23;;;3.10;;
50954;SDS011;36966;48.064;-0.792;2022-12-29T11:28:43;13.70;;;2.75;;
50954;SDS011;36966;48.064;-0.792;2022-12-29T11:31:05;7.85;;;2.38;;
50954;SDS011;36966;48.064;-0.792;2022-12-29T11:33:27;13.82;;;1.60;;
50954;SDS011;36966;48.064;-0.792;2022-12-29T11:35:48;7.88;;;1.85;;
50954;SDS011;36966;48.064;-0.792;2022-12-29T11:38:16;11.85;;;2.95;;
50954;SDS011;36966;48.064;-0.792;2022-12-29T11:40:39;7.30;;;1.90;;
50954;SDS011;36966;48.064;-0.792;2022-12-29T11:42:59;11.30;;;1.85;;
50954;SDS011;36966;48.064;-0.792;2022-12-29T11:45:24;9.18;;;2.25;;
50954;SDS011;36966;48.064;-0.792;2022-12-29T11:47:52;14.13;;;2.03;;
50954;SDS011;36966;48.064;-0.792;2022-12-29T11:50:18;11.55;;;2.80;;
50954;SDS011;36966;48.064;-0.792;2022-12-29T11:52:41;15.32;;;2.20;;
50954;SDS011;36966;48.064;-0.792;2022-12-29T11:55:01;10.85;;;2.80;;
50954;SDS011;36966;48.064;-0.792;2022-12-29T11:57:24;8.75;;;1.92;;
50954;SDS011;36966;48.064;-0.792;2022-12-29T11:59:53;9.93;;;2.40;;
50954;SDS011;36966;48.064;-0.792;2022-12-29T12:05:16;15.27;;;3.28;;
50954;SDS011;36966;48.064;-0.792;2022-12-29T12:07:47;12.32;;;2.10;;
50954;SDS011;36966;48.064;-0.792;2022-12-29T12:10:18;8.60;;;1.77;;
50954;SDS011;36966;48.064;-0.792;2022-12-29T12:12:51;14.70;;;1.85;;
50954;SDS011;36966;48.064;-0.792;2022-12-29T12:15:22;12.23;;;2.58;;
50954;SDS011;36966;48.064;-0.792;2022-12-29T12:17:50;17.08;;;2.28;;
50954;SDS011;36966;48.064;-0.792;2022-12-29T12:22:41;11.38;;;2.20;;
50954;SDS011;36966;48.064;-0.792;2022-12-29T12:27:48;13.10;;;2.65;;
50954;SDS011;36966;48.064;-0.792;2022-12-29T12:30:11;15.18;;;2.25;;
50954;SDS011;36966;48.064;-0.792;2022-12-29T12:34:56;15.30;;;2.65;;
50954;SDS011;36966;48.064;-0.792;2022-12-29T12:37:23;10.55;;;2.13;;
50954;SDS011;36966;48.064;-0.792;2022-12-29T12:39:49;10.43;;;2.20;;
50954;SDS011;36966;48.064;-0.792;2022-12-29T12:50:50;17.55;;;2.58;;
50954;SDS011;36966;48.064;-0.792;2022-12-29T12:56:23;12.38;;;3.25;;
50954;SDS011;36966;48.064;-0.792;2022-12-29T13:01:38;14.40;;;2.72;;
50954;SDS011;36966;48.064;-0.792;2022-12-29T13:12:10;11.48;;;2.38;;
50954;SDS011;36966;48.064;-0.792;2022-12-29T13:14:40;14.85;;;2.20;;
50954;SDS011;36966;48.064;-0.792;2022-12-29T13:19:55;12.20;;;2.58;;
50954;SDS011;36966;48.064;-0.792;2022-12-29T13:25:14;9.35;;;2.50;;
50954;SDS011;36966;48.064;-0.792;2022-12-29T13:27:56;13.85;;;3.10;;
50954;SDS011;36966;48.064;-0.792;2022-12-29T13:30:35;12.23;;;3.33;;
50954;SDS011;36966;48.064;-0.792;2022-12-29T13:40:41;17.10;;;2.80;;
50954;SDS011;36966;48.064;-0.792;2022-12-29T13:43:03;14.50;;;2.40;;
50954;SDS011;36966;48.064;-0.792;2022-12-29T13:45:24;12.90;;;2.38;;
50954;SDS011;36966;48.064;-0.792;2022-12-29T13:50:17;10.38;;;2.30;;
50954;SDS011;36966;48.064;-0.792;2022-12-29T13:52:42;13.55;;;2.50;;
50954;SDS011;36966;48.064;-0.792;2022-12-29T13:55:34;21.30;;;2.42;;
50954;SDS011;36966;48.064;-0.792;2022-12-29T13:58:26;10.95;;;1.88;;
50954;SDS011;36966;48.064;-0.792;2022-12-29T14:03:45;10.70;;;3.28;;
50954;SDS011;36966;48.064;-0.792;2022-12-29T14:08:33;8.50;;;1.80;;
50954;SDS011;36966;48.064;-0.792;2022-12-29T14:10:53;15.25;;;3.15;;
50954;SDS011;36966;48.064;-0.792;2022-12-29T14:15:34;16.52;;;2.85;;
50954;SDS011;36966;48.064;-0.792;2022-12-29T14:20:37;18.20;;;2.65;;
50954;SDS011;36966;48.064;-0.792;2022-12-29T14:28:27;12.70;;;1.73;;
50954;SDS011;36966;48.064;-0.792;2022-12-29T14:30:51;15.75;;;2.03;;
50954;SDS011;36966;48.064;-0.792;2022-12-29T14:33:12;11.20;;;1.83;;
50954;SDS011;36966;48.064;-0.792;2022-12-29T14:35:38;10.57;;;1.73;;
50954;SDS011;36966;48.064;-0.792;2022-12-29T14:38:17;13.38;;;2.20;;
50954;SDS011;36966;48.064;-0.792;2022-12-29T14:40:39;12.15;;;1.90;;
50954;SDS011;36966;48.064;-0.792;2022-12-29T14:42:58;7.03;;;1.67;;
50954;SDS011;36966;48.064;-0.792;2022-12-29T14:47:38;13.23;;;2.63;;
50954;SDS011;36966;48.064;-0.792;2022-12-29T14:50:07;15.23;;;1.83;;
50954;SDS011;36966;48.064;-0.792;2022-12-29T14:52:27;10.30;;;1.65;;
50954;SDS011;36966;48.064;-0.792;2022-12-29T14:54:52;10.13;;;1.52;;
50954;SDS011;36966;48.064;-0.792;2022-12-29T14:57:19;14.73;;;1.65;;
50954;SDS011;36966;48.064;-0.792;2022-12-29T14:59:42;6.85;;;1.35;;
50954;SDS011;36966;48.064;-0.792;2022-12-29T15:02:04;16.45;;;1.42;;
50954;SDS011;36966;48.064;-0.792;2022-12-29T15:04:39;10.90;;;1.70;;
50954;SDS011;36966;48.064;-0.792;2022-12-29T15:06:59;10.13;;;1.73;;
50954;SDS011;36966;48.064;-0.792;2022-12-29T15:11:51;6.55;;;1.33;;
50954;SDS011;36966;48.064;-0.792;2022-12-29T15:16:49;18.40;;;1.58;;
50954;SDS011;36966;48.064;-0.792;2022-12-29T15:19:20;11.18;;;0.90;;
50954;SDS011;36966;48.064;-0.792;2022-12-29T15:21:41;9.82;;;1.42;;
50954;SDS011;36966;48.064;-0.792;2022-12-29T15:24:01;11.05;;;2.03;;
50954;SDS011;36966;48.064;-0.792;2022-12-29T15:26:22;11.43;;;2.10;;
50954;SDS011;36966;48.064;-0.792;2022-12-29T15:28:46;10.95;;;1.52;;
50954;SDS011;36966;48.064;-0.792;2022-12-29T15:31:10;15.25;;;2.08;;
50954;SDS011;36966;48.064;-0.792;2022-12-29T15:33:30;3.90;;;0.77;;
50954;SDS011;36966;48.064;-0.792;2022-12-29T15:35:50;10.82;;;1.35;;
50954;SDS011;36966;48.064;-0.792;2022-12-29T15:38:14;6.68;;;1.10;;
50954;SDS011;36966;48.064;-0.792;2022-12-29T15:40:35;6.50;;;1.23;;
50954;SDS011;36966;48.064;-0.792;2022-12-29T15:46:13;10.20;;;1.65;;
50954;SDS011;36966;48.064;-0.792;2022-12-29T15:48:32;9.88;;;1.27;;
50954;SDS011;36966;48.064;-0.792;2022-12-29T15:50:52;8.13;;;1.48;;
50954;SDS011;36966;48.064;-0.792;2022-12-29T15:53:12;9.23;;;1.55;;
50954;SDS011;36966;48.064;-0.792;2022-12-29T15:55:43;6.13;;;0.93;;
50954;SDS011;36966;48.064;-0.792;2022-12-29T15:58:15;7.35;;;1.00;;
50954;SDS011;36966;48.064;-0.792;2022-12-29T16:00:38;10.77;;;1.60;;
50954;SDS011;36966;48.064;-0.792;2022-12-29T16:02:58;4.20;;;1.17;;
50954;SDS011;36966;48.064;-0.792;2022-12-29T16:05:19;9.00;;;1.63;;
50954;SDS011;36966;48.064;-0.792;2022-12-29T16:07:39;9.52;;;1.55;;
50954;SDS011;36966;48.064;-0.792;2022-12-29T16:10:22;10.30;;;2.85;;
50954;SDS011;36966;48.064;-0.792;2022-12-29T16:13:04;6.93;;;1.83;;
50954;SDS011;36966;48.064;-0.792;2022-12-29T16:15:31;8.98;;;1.38;;
50954;SDS011;36966;48.064;-0.792;2022-12-29T16:17:51;5.78;;;1.60;;
50954;SDS011;36966;48.064;-0.792;2022-12-29T16:20:16;12.38;;;0.82;;
50954;SDS011;36966;48.064;-0.792;2022-12-29T16:22:39;10.45;;;2.05;;
50954;SDS011;36966;48.064;-0.792;2022-12-29T16:30:16;12.45;;;4.80;;